Time;durP1;ratioP1;P1;durP2;ratioP2;P2;SDS_P1;SDS_P2;PMS_P1;PMS_P2;Temp;Humidity;BMP_temperature;BMP_pressure;BME280_temperature;BME280_humidity;BME280_pressure;Samples;Min_cycle;Max_cycle;Signal;HPM_P1;HPM_P2
2022/02/21 00:02:16;;;;;;;23.55;14.20;;;;;;;8.39;61.12;99921.69;1756037;81;21100;-63
2022/02/21 00:04:43;;;;;;;26.48;14.68;;;;;;;8.52;61.31;99925.79;1750235;81;20982;-64
2022/02/21 00:07:09;;;;;;;22.67;12.93;;;;;;;8.49;61.93;99919.64;1756045;81;21032;-64
2022/02/21 00:09:35;;;;;;;21.75;13.78;;;;;;;8.40;63.13;99917.30;1756625;81;21440;-63
2022/02/21 00:12:04;;;;;;;21.00;13.08;;;;;;;8.24;64.43;99920.82;1752116;81;21494;-68
2022/02/21 00:14:30;;;;;;;19.95;12.33;;;;;;;8.17;65.68;99916.01;1756610;81;21154;-75
2022/02/21 00:16:59;;;;;;;21.07;13.20;;;;;;;8.01;67.93;99922.95;1753482;81;20870;-63
2022/02/21 00:19:25;;;;;;;22.98;12.93;;;;;;;8.52;66.26;99914.56;1755963;81;20974;-63
2022/02/21 00:21:52;;;;;;;21.20;12.78;;;;;;;8.37;67.33;99913.28;1753276;81;20969;-76
2022/02/21 00:24:18;;;;;;;22.55;12.37;;;;;;;8.02;69.87;99905.59;1755884;81;21056;-67
2022/02/21 00:26:45;;;;;;;24.63;16.12;;;;;;;8.05;71.80;99903.94;1755490;81;21138;-75
2022/02/21 00:29:11;;;;;;;23.73;14.95;;;;;;;8.21;68.46;99908.18;1753478;81;20953;-63
2022/02/21 00:31:38;;;;;;;26.52;17.07;;;;;;;8.40;68.08;99905.11;1757055;81;20882;-73
2022/02/21 00:34:05;;;;;;;27.90;15.25;;;;;;;7.92;70.34;99910.23;1755924;81;20953;-63
2022/02/21 00:36:32;;;;;;;22.87;13.65;;;;;;;8.03;72.18;99900.23;1756548;81;21092;-62
2022/02/21 00:38:59;;;;;;;19.73;12.35;;;;;;;8.20;69.81;99903.48;1751371;81;21159;-63
2022/02/21 00:41:25;;;;;;;24.35;13.75;;;;;;;7.93;72.09;99906.64;1755903;81;21088;-64
2022/02/21 00:43:52;;;;;;;20.57;14.38;;;;;;;7.54;74.76;99909.67;1728602;81;21050;-63
2022/02/21 00:46:19;;;;;;;24.25;14.28;;;;;;;7.66;75.35;99904.09;1753581;81;21564;-63
2022/02/21 00:48:46;;;;;;;22.95;14.58;;;;;;;7.69;74.94;99901.95;1753011;81;21499;-67
2022/02/21 00:51:13;;;;;;;23.65;12.93;;;;;;;7.62;74.49;99902.33;1755638;81;21470;-64
2022/02/21 00:53:40;;;;;;;36.00;21.17;;;;;;;7.44;75.72;99900.00;1756152;81;20933;-64
2022/02/21 00:56:08;;;;;;;49.60;27.55;;;;;;;7.41;77.54;99903.42;1756285;81;20952;-64
2022/02/21 00:58:35;;;;;;;54.23;30.65;;;;;;;7.17;78.45;99906.95;1756268;81;21091;-76
2022/02/21 01:01:02;;;;;;;49.88;29.67;;;;;;;7.14;81.17;99904.69;1752975;81;20945;-64
2022/02/21 01:03:29;;;;;;;46.23;27.55;;;;;;;7.27;79.55;99899.75;1752570;81;22218;-63
2022/02/21 01:05:55;;;;;;;48.95;28.52;;;;;;;7.34;77.51;99892.91;1741944;82;21530;-64
2022/02/21 01:08:22;;;;;;;49.42;32.03;;;;;;;7.33;78.62;99886.13;1742019;82;21045;-62
2022/02/21 01:10:49;;;;;;;54.25;32.93;;;;;;;7.35;77.48;99886.77;1742438;82;21460;-70
2022/02/21 01:13:15;;;;;;;47.62;27.37;;;;;;;7.21;77.41;99884.90;1741003;82;20993;-64
2022/02/21 01:15:43;;;;;;;40.85;24.95;;;;;;;7.23;76.71;99881.63;1742193;82;21153;-63
2022/02/21 01:18:10;;;;;;;40.25;23.90;;;;;;;7.05;76.70;99880.61;1741959;82;21010;-64
2022/02/21 01:20:37;;;;;;;36.85;21.93;;;;;;;7.13;75.99;99875.88;1741992;82;20974;-76
2022/02/21 01:23:04;;;;;;;36.80;20.77;;;;;;;7.03;73.94;99882.05;1740242;82;21456;-76
2022/02/21 01:25:31;;;;;;;35.13;21.73;;;;;;;7.17;72.41;99872.77;1742153;82;21049;-66
2022/02/21 01:27:57;;;;;;;36.55;20.88;;;;;;;7.04;71.63;99869.41;1742117;82;21131;-65
2022/02/21 01:30:24;;;;;;;32.20;19.42;;;;;;;6.78;73.21;99864.98;1741902;82;20875;-62
2022/02/21 01:32:50;;;;;;;29.67;18.77;;;;;;;6.68;74.84;99866.98;1739914;82;20938;-76
2022/02/21 01:35:16;;;;;;;31.17;18.92;;;;;;;6.93;73.11;99863.80;1741141;82;20883;-62
2022/02/21 01:37:43;;;;;;;31.27;18.80;;;;;;;6.33;78.51;99862.55;1735624;82;21048;-62
2022/02/21 01:40:11;;;;;;;31.75;18.55;;;;;;;6.39;79.58;99864.95;1741818;82;21035;-62
2022/02/21 01:42:38;;;;;;;37.08;20.62;;;;;;;6.43;79.47;99860.56;1741775;82;20970;-62
2022/02/21 01:45:06;;;;;;;34.53;22.45;;;;;;;6.40;78.21;99863.48;1739187;82;21134;-78
2022/02/21 01:47:34;;;;;;;36.85;19.30;;;;;;;6.61;78.45;99856.97;1742017;82;21010;-63
2022/02/21 01:50:01;;;;;;;33.78;19.20;;;;;;;6.46;78.14;99853.77;1739308;82;21061;-63
2022/02/21 01:52:29;;;;;;;35.58;19.75;;;;;;;6.44;78.21;99862.66;1715056;82;21187;-69
2022/02/21 01:54:55;;;;;;;31.87;18.45;;;;;;;6.51;77.97;99857.95;1741635;82;20991;-79
2022/02/21 01:57:22;;;;;;;34.65;20.00;;;;;;;6.62;75.36;99861.17;1717447;82;21076;-63
2022/02/21 01:59:48;;;;;;;33.65;18.62;;;;;;;6.57;75.91;99863.77;1740182;82;21025;-62
2022/02/21 02:02:16;;;;;;;34.53;21.00;;;;;;;6.71;74.28;99862.77;1737308;82;20891;-66
2022/02/21 02:04:44;;;;;;;32.08;21.20;;;;;;;6.37;77.41;99869.02;1743179;82;21317;-70
2022/02/21 02:07:11;;;;;;;33.55;18.60;;;;;;;6.62;75.87;99866.34;1740609;82;20978;-79
2022/02/21 02:09:40;;;;;;;32.00;19.05;;;;;;;6.73;74.68;99873.76;1736812;82;20997;-63
2022/02/21 02:12:09;;;;;;;29.27;17.65;;;;;;;6.73;73.45;99866.80;1732770;82;21306;-63
2022/02/21 02:14:39;;;;;;;30.75;18.23;;;;;;;6.61;75.12;99873.80;1738743;82;20815;-63
2022/02/21 02:17:12;;;;;;;30.68;17.45;;;;;;;6.56;76.62;99873.02;1741931;82;21417;-67
2022/02/21 02:19:41;;;;;;;30.02;17.55;;;;;;;6.57;79.75;99870.25;1742003;82;21049;-63
2022/02/21 02:22:16;;;;;;;31.10;17.85;;;;;;;6.55;78.81;99868.33;1741925;82;21046;-63
2022/02/21 02:24:46;;;;;;;29.98;17.45;;;;;;;6.36;78.44;99881.61;1740880;82;20963;-62
2022/02/21 02:27:12;;;;;;;25.90;16.60;;;;;;;6.13;81.85;99879.39;1741456;82;20966;-65
2022/02/21 02:29:41;;;;;;;27.27;16.67;;;;;;;6.22;80.33;99873.25;1739576;82;21105;-63
2022/02/21 02:32:08;;;;;;;30.30;16.45;;;;;;;6.13;77.90;99876.31;1738767;82;21012;-67
2022/02/21 02:34:38;;;;;;;22.40;13.45;;;;;;;6.12;77.22;99871.31;1742385;82;20894;-70
2022/02/21 02:37:05;;;;;;;22.35;11.90;;;;;;;6.25;76.35;99869.02;1740824;82;20927;-79
2022/02/21 02:39:31;;;;;;;21.05;12.80;;;;;;;6.27;76.84;99868.38;1739133;82;21606;-63
2022/02/21 02:41:58;;;;;;;23.20;12.53;;;;;;;6.29;76.81;99867.25;1741867;82;22191;-64
2022/02/21 02:44:24;;;;;;;23.15;13.35;;;;;;;6.28;77.37;99867.40;1741167;82;20970;-65
2022/02/21 02:46:51;;;;;;;24.57;12.63;;;;;;;6.33;78.15;99869.03;1742067;82;20994;-80
2022/02/21 02:49:17;;;;;;;21.00;12.40;;;;;;;6.12;79.97;99873.41;1738069;82;21421;-68
2022/02/21 02:51:43;;;;;;;22.35;13.18;;;;;;;6.09;82.13;99869.36;1741932;82;21574;-63
2022/02/21 02:54:11;;;;;;;25.15;13.22;;;;;;;6.07;83.33;99879.57;1738185;82;21162;-64
2022/02/21 02:56:42;;;;;;;25.05;12.93;;;;;;;6.32;81.53;99878.55;1742073;82;21527;-64
2022/02/21 02:59:09;;;;;;;17.07;10.60;;;;;;;6.30;81.38;99875.82;1742466;82;20966;-70
2022/02/21 03:01:36;;;;;;;23.38;12.55;;;;;;;6.35;81.46;99870.95;1742154;82;21117;-64
2022/02/21 03:04:02;;;;;;;24.70;12.70;;;;;;;6.50;79.96;99871.08;1743191;81;21026;-67
2022/02/21 03:06:30;;;;;;;22.70;12.28;;;;;;;6.52;79.49;99867.84;1756939;81;21527;-63
2022/02/21 03:08:56;;;;;;;22.70;12.65;;;;;;;6.44;80.26;99872.56;1753865;81;21044;-82
2022/02/21 03:11:23;;;;;;;19.77;11.90;;;;;;;6.44;80.55;99877.73;1727179;81;21032;-64
2022/02/21 03:13:49;;;;;;;21.15;13.08;;;;;;;6.32;81.03;99874.66;1756714;81;21138;-64
2022/02/21 03:16:17;;;;;;;22.58;12.95;;;;;;;6.11;81.64;99876.98;1753138;81;21000;-64
2022/02/21 03:18:45;;;;;;;23.22;12.45;;;;;;;6.09;84.04;99873.23;1756801;81;21173;-64
2022/02/21 03:21:12;;;;;;;25.23;14.40;;;;;;;6.11;84.38;99871.80;1755661;81;20957;-82
2022/02/21 03:23:38;;;;;;;23.50;13.93;;;;;;;6.04;84.34;99867.76;1755990;81;21425;-64
2022/02/21 03:26:04;;;;;;;24.77;13.40;;;;;;;6.21;83.59;99866.44;1754735;81;21598;-64
2022/02/21 03:28:31;;;;;;;22.48;13.98;;;;;;;6.19;83.65;99863.22;1755868;81;21033;-63
2022/02/21 03:30:58;;;;;;;26.62;13.72;;;;;;;6.25;82.37;99862.55;1756753;81;22470;-66
2022/02/21 03:33:24;;;;;;;24.02;13.50;;;;;;;6.28;81.17;99867.40;1754576;81;21471;-80
2022/02/21 03:35:51;;;;;;;22.32;12.80;;;;;;;6.16;81.74;99864.34;1756608;81;21525;-66
2022/02/21 03:38:17;;;;;;;23.10;13.53;;;;;;;6.03;82.84;99869.22;1756140;81;21083;-64
2022/02/21 03:40:44;;;;;;;25.23;12.98;;;;;;;6.08;82.89;99862.58;1753758;81;20969;-65
2022/02/21 03:43:11;;;;;;;21.30;12.65;;;;;;;6.15;83.26;99861.44;1756158;81;21163;-65
2022/02/21 03:45:37;;;;;;;25.82;13.18;;;;;;;6.12;82.93;99859.17;1752763;81;20966;-64
2022/02/21 03:48:05;;;;;;;22.93;13.40;;;;;;;6.06;84.19;99857.23;1756583;81;22394;-64
2022/02/21 03:50:32;;;;;;;25.72;13.50;;;;;;;6.00;83.60;99861.30;1753916;81;21598;-63
2022/02/21 03:52:58;;;;;;;22.25;13.32;;;;;;;6.15;83.35;99864.03;1757075;81;20994;-66
2022/02/21 03:55:25;;;;;;;21.90;12.18;;;;;;;6.09;83.38;99865.47;1729849;82;22070;-79
2022/02/21 03:57:51;;;;;;;22.95;12.80;;;;;;;6.11;83.08;99871.00;1725442;82;21010;-63
2022/02/21 04:00:21;;;;;;;22.30;13.48;;;;;;;6.39;81.03;99863.17;1724557;80;21125;-67
2022/02/21 04:02:48;;;;;;;26.00;13.05;;;;;;;6.47;79.77;99864.44;1688427;84;21146;-63
2022/02/21 04:05:15;;;;;;;23.50;13.72;;;;;;;6.39;79.50;99866.25;1690179;84;21070;-65
2022/02/21 04:07:42;;;;;;;24.27;13.93;;;;;;;6.56;78.66;99866.55;1689527;84;21089;-66
2022/02/21 04:10:13;;;;;;;23.10;13.03;;;;;;;6.60;77.72;99870.91;1689571;84;21187;-64
2022/02/21 04:12:40;;;;;;;26.10;14.47;;;;;;;6.71;76.88;99873.13;1690351;84;21062;-65
2022/02/21 04:15:08;;;;;;;25.57;14.13;;;;;;;6.65;77.19;99877.67;1687675;84;21030;-64
2022/02/21 04:17:50;;;;;;;22.95;14.25;;;;;;;6.70;79.07;99880.56;1689501;84;21113;-65
2022/02/21 04:20:19;;;;;;;24.85;14.30;;;;;;;6.45;81.96;99878.05;1689899;84;21579;-64
2022/02/21 04:22:46;;;;;;;20.55;13.18;;;;;;;6.25;88.33;99876.78;1690176;84;21011;-64
2022/02/21 04:25:13;;;;;;;25.52;15.03;;;;;;;6.42;89.77;99875.78;1681792;84;21639;-64
2022/02/21 04:27:46;;;;;;;23.87;14.13;;;;;;;6.80;88.38;99866.94;1688790;83;21050;-77
2022/02/21 04:30:15;;;;;;;23.65;13.48;;;;;;;6.82;88.16;99870.18;1689889;84;22055;-64
2022/02/21 04:32:43;;;;;;;26.00;14.28;;;;;;;7.00;88.15;99862.95;1689837;84;21178;-63
2022/02/21 04:35:10;;;;;;;24.40;14.98;;;;;;;6.92;90.21;99867.38;1689764;84;21562;-64
2022/02/21 04:37:37;;;;;;;22.93;13.60;;;;;;;7.20;87.95;99863.84;1689722;84;21034;-76
2022/02/21 04:40:06;;;;;;;22.05;13.22;;;;;;;7.35;87.55;99862.14;1689328;84;21117;-63
2022/02/21 04:42:34;;;;;;;21.70;13.30;;;;;;;7.25;89.25;99866.73;1690029;84;21141;-63
2022/02/21 04:45:01;;;;;;;26.30;14.03;;;;;;;7.59;86.26;99859.06;1689941;84;21362;-65
2022/02/21 04:47:27;;;;;;;28.80;13.85;;;;;;;8.16;79.03;99856.79;1689738;84;21041;-77
2022/02/21 04:49:54;;;;;;;21.80;14.20;;;;;;;8.09;76.46;99853.28;1689199;84;20963;-65
2022/02/21 04:52:20;;;;;;;28.30;14.18;;;;;;;8.34;74.88;99859.06;1689915;84;21097;-65
2022/02/21 04:54:47;;;;;;;22.50;14.35;;;;;;;8.65;71.53;99852.91;1689724;84;21027;-64
2022/02/21 04:57:13;;;;;;;22.52;13.15;;;;;;;8.84;68.92;99855.45;1690032;84;21151;-65
2022/02/21 04:59:40;;;;;;;25.23;13.40;;;;;;;8.90;68.36;99852.94;1687620;83;21504;-70
2022/02/21 05:02:07;;;;;;;23.20;14.33;;;;;;;8.73;68.85;99855.41;1679935;83;20980;-67
2022/02/21 05:04:33;;;;;;;23.73;14.65;;;;;;;8.71;68.77;99849.57;1677240;83;21109;-65
2022/02/21 05:07:00;;;;;;;24.35;13.43;;;;;;;8.34;70.49;99847.87;1677899;83;21077;-66
2022/02/21 05:09:27;;;;;;;24.27;14.45;;;;;;;8.16;72.12;99851.59;1670877;83;21229;-64
2022/02/21 05:11:54;;;;;;;26.62;16.77;;;;;;;8.33;72.90;99852.73;1675176;84;20984;-77
2022/02/21 05:14:20;;;;;;;27.30;16.82;;;;;;;8.39;73.76;99848.96;1677208;83;22311;-64
2022/02/21 05:16:47;;;;;;;25.85;16.80;;;;;;;8.56;74.92;99848.78;1676541;83;21182;-64
2022/02/21 05:19:14;;;;;;;25.00;16.17;;;;;;;8.65;77.24;99852.41;1673097;83;20976;-68
2022/02/21 05:21:40;;;;;;;27.25;16.48;;;;;;;9.03;75.11;99845.77;1676194;83;21159;-68
2022/02/21 05:24:07;;;;;;;27.27;16.17;;;;;;;9.47;72.78;99839.61;1675568;83;20943;-70
2022/02/21 05:26:34;;;;;;;27.60;15.95;;;;;;;9.73;69.33;99840.34;1675613;83;22546;-66
2022/02/21 05:29:00;;;;;;;24.67;15.23;;;;;;;9.76;69.96;99843.88;1677536;83;21149;-70
2022/02/21 05:31:27;;;;;;;27.30;15.15;;;;;;;9.81;70.22;99846.75;1676837;83;21026;-65
2022/02/21 05:33:54;;;;;;;23.50;15.08;;;;;;;9.99;69.68;99847.06;1677047;83;22464;-73
2022/02/21 05:36:21;;;;;;;26.40;17.90;;;;;;;10.47;68.36;99844.61;1674865;83;22396;-64
2022/02/21 05:38:47;;;;;;;30.32;17.37;;;;;;;10.52;64.76;99840.63;1671541;83;21003;-65
2022/02/21 05:41:14;;;;;;;27.13;15.72;;;;;;;10.79;64.66;99839.73;1676572;83;20972;-64
2022/02/21 05:43:40;;;;;;;22.65;14.83;;;;;;;11.01;66.40;99838.33;1677238;83;21488;-64
2022/02/21 05:46:07;;;;;;;22.70;15.00;;;;;;;11.55;65.15;99842.65;1675851;83;21173;-72
2022/02/21 05:48:33;;;;;;;23.60;15.90;;;;;;;12.39;61.99;99825.06;1677742;83;21152;-66
2022/02/21 05:51:00;;;;;;;25.77;15.43;;;;;;;12.96;60.26;99822.12;1679219;83;21106;-68
2022/02/21 05:53:26;;;;;;;24.27;16.10;;;;;;;13.53;56.83;99822.22;1675150;83;21566;-67
2022/02/21 05:55:53;;;;;;;20.92;13.25;;;;;;;13.66;55.12;99819.48;1674930;83;21003;-68
2022/02/21 05:58:19;;;;;;;20.95;13.18;;;;;;;13.83;51.93;99823.69;1673890;83;21172;-69
2022/02/21 06:00:48;;;;;;;22.00;14.07;;;;;;;13.36;50.13;99824.02;1677748;83;21099;-68
2022/02/21 06:03:16;;;;;;;23.40;14.60;;;;;;;12.97;49.32;99827.64;1683093;83;21691;-68
2022/02/21 06:05:46;;;;;;;22.47;15.03;;;;;;;12.94;48.37;99834.59;1681281;83;21279;-69
2022/02/21 06:08:14;;;;;;;23.50;15.27;;;;;;;13.12;47.81;99832.09;1720469;81;21343;-68
2022/02/21 06:10:41;;;;;;;23.47;15.63;;;;;;;12.97;48.16;99834.70;1716597;81;21363;-67
2022/02/21 06:13:07;;;;;;;20.32;14.65;;;;;;;12.96;48.76;99830.48;1715920;81;21360;-67
2022/02/21 06:15:35;;;;;;;21.27;14.20;;;;;;;13.02;48.67;99831.73;1718914;81;21079;-69
2022/02/21 06:18:02;;;;;;;21.60;14.03;;;;;;;13.49;48.24;99834.13;1718180;81;21529;-70
2022/02/21 06:20:28;;;;;;;19.57;12.83;;;;;;;13.80;47.69;99830.66;1656283;84;21915;-67
2022/02/21 06:22:56;;;;;;;18.67;12.80;;;;;;;14.11;46.79;99828.47;1718084;81;21932;-67
2022/02/21 06:25:22;;;;;;;19.77;12.33;;;;;;;14.35;46.42;99828.91;1716989;81;21440;-70
2022/02/21 06:27:49;;;;;;;20.33;11.90;;;;;;;14.41;45.43;99829.08;1721101;81;21336;-73
2022/02/21 06:30:16;;;;;;;20.67;13.97;;;;;;;14.25;45.21;99827.33;1718699;81;21168;-65
2022/02/21 06:32:43;;;;;;;19.07;12.30;;;;;;;14.19;45.09;99825.56;1719941;81;21388;-66
2022/02/21 06:35:11;;;;;;;20.57;13.43;;;;;;;14.73;44.14;99827.11;1716392;81;21323;-69
2022/02/21 06:37:46;;;;;;;20.40;13.57;;;;;;;14.94;43.30;99825.86;1721441;81;21227;-65
2022/02/21 06:40:13;;;;;;;19.27;12.40;;;;;;;15.05;43.31;99829.05;1719753;81;21343;-70
2022/02/21 06:42:40;;;;;;;17.10;11.90;;;;;;;15.10;43.66;99834.41;1718795;81;21816;-65
2022/02/21 06:45:09;;;;;;;18.30;12.03;;;;;;;15.56;42.32;99822.44;1721215;81;21121;-66
2022/02/21 06:47:37;;;;;;;17.73;11.53;;;;;;;16.16;41.23;99819.63;1721892;81;21369;-67
2022/02/21 06:50:06;;;;;;;17.77;11.23;;;;;;;16.49;39.76;99815.59;1716768;81;21363;-69
2022/02/21 06:52:33;;;;;;;17.63;10.37;;;;;;;16.58;38.08;99812.87;1718033;81;21522;-65
2022/02/21 06:55:01;;;;;;;17.73;10.90;;;;;;;16.43;38.37;99810.73;1720458;81;21432;-68
2022/02/21 06:57:29;;;;;;;19.20;11.47;;;;;;;16.18;38.91;99820.22;1720730;81;21450;-66
2022/02/21 06:59:56;;;;;;;16.60;10.33;;;;;;;16.18;38.91;99820.22;1718947;81;21448;-69
2022/02/21 07:02:24;;;;;;;13.33;9.83;;;;;;;16.80;37.77;99807.80;1720465;81;23508;-68
2022/02/21 07:04:52;;;;;;;17.47;10.67;;;;;;;17.42;36.76;99809.66;1720624;81;22042;-65
2022/02/21 07:07:20;;;;;;;17.13;10.10;;;;;;;17.42;36.76;99809.66;1721660;81;22102;-64
2022/02/21 07:09:47;;;;;;;14.00;9.07;;;;;;;17.48;35.68;99803.45;1720167;81;21625;-65
2022/02/21 07:12:15;;;;;;;17.70;10.83;;;;;;;17.31;35.37;99798.68;1719998;81;22141;-66
2022/02/21 07:14:42;;;;;;;15.33;10.43;;;;;;;17.47;35.07;99803.19;1719974;81;21698;-65
2022/02/21 07:17:09;;;;;;;17.87;10.43;;;;;;;17.37;35.38;99797.22;1721519;81;21742;-66
2022/02/21 07:19:38;;;;;;;17.07;10.93;;;;;;;17.25;35.61;99797.81;1720516;81;21739;-66
2022/02/21 07:22:06;;;;;;;16.13;10.03;;;;;;;17.27;35.33;99790.45;1721983;81;21521;-70
2022/02/21 07:24:33;;;;;;;17.10;9.70;;;;;;;17.25;35.67;99783.33;1719436;81;21789;-68
2022/02/21 07:27:00;;;;;;;17.70;11.03;;;;;;;17.80;34.55;99787.87;1717669;81;21760;-68
2022/02/21 07:29:28;;;;;;;16.40;10.43;;;;;;;17.51;34.42;99786.64;1720807;81;21722;-65
2022/02/21 07:31:56;;;;;;;16.40;10.50;;;;;;;17.59;34.86;99789.92;1719532;81;21084;-65
2022/02/21 07:34:23;;;;;;;16.10;10.73;;;;;;;17.62;34.65;99792.08;1717156;81;20999;-68
2022/02/21 07:36:50;;;;;;;16.10;9.80;;;;;;;17.86;34.14;99792.72;1719467;81;21796;-66
2022/02/21 07:39:18;;;;;;;16.70;10.17;;;;;;;17.91;34.32;99791.46;1721043;81;21511;-65
2022/02/21 07:41:45;;;;;;;15.20;10.20;;;;;;;18.00;34.31;99790.03;1719210;81;21064;-65
2022/02/21 07:44:13;;;;;;;17.27;11.30;;;;;;;18.17;34.36;99792.09;1717942;81;21577;-67
2022/02/21 07:46:40;;;;;;;14.20;10.53;;;;;;;18.19;34.45;99787.37;1717181;81;21012;-67
2022/02/21 07:49:07;;;;;;;15.17;10.40;;;;;;;18.24;34.67;99790.07;1721225;83;21142;-66
2022/02/21 07:51:35;;;;;;;17.70;10.67;;;;;;;18.55;34.26;99794.39;1718312;81;21085;-65
2022/02/21 07:54:02;;;;;;;15.43;10.27;;;;;;;18.79;33.92;99792.33;1718849;81;20996;-66
2022/02/21 07:56:29;;;;;;;13.60;9.47;;;;;;;18.76;33.25;99790.18;1719623;83;21096;-68
2022/02/21 07:58:56;;;;;;;14.13;8.97;;;;;;;18.67;33.36;99780.53;1720287;81;22035;-66
2022/02/21 08:01:23;;;;;;;14.10;8.73;;;;;;;18.77;33.01;99780.41;1719286;81;21650;-63
2022/02/21 08:03:52;;;;;;;14.13;8.03;;;;;;;18.74;32.90;99784.34;1720823;81;20961;-64
2022/02/21 08:06:21;;;;;;;16.40;8.50;;;;;;;18.79;32.88;99784.91;1718318;81;20961;-67
2022/02/21 08:08:49;;;;;;;12.93;7.70;;;;;;;18.93;32.27;99785.59;1717207;81;21448;-68
2022/02/21 08:11:17;;;;;;;13.03;7.87;;;;;;;19.13;31.99;99778.40;1722076;81;21084;-64
2022/02/21 08:13:45;;;;;;;15.23;8.00;;;;;;;19.49;32.07;99774.71;1717156;81;22615;-63
2022/02/21 08:16:12;;;;;;;13.40;7.53;;;;;;;19.86;31.43;99776.58;1719420;81;21278;-64
2022/02/21 08:18:40;;;;;;;13.60;7.40;;;;;;;20.47;31.25;99770.23;1719297;81;21044;-69
2022/02/21 08:21:10;;;;;;;13.67;8.00;;;;;;;21.11;30.13;99763.77;1717659;81;21126;-66
2022/02/21 08:23:38;;;;;;;11.50;6.80;;;;;;;21.44;29.65;99762.47;1718340;81;22073;-62
2022/02/21 08:26:05;;;;;;;9.90;6.87;;;;;;;21.37;28.96;99756.64;1717681;82;21180;-62
2022/02/21 08:28:34;;;;;;;11.43;6.43;;;;;;;21.49;28.26;99748.41;1712232;82;21052;-72
2022/02/21 08:31:00;;;;;;;10.00;5.93;;;;;;;21.53;27.83;99744.16;1719559;82;21083;-62
2022/02/21 08:33:30;;;;;;;11.70;6.33;;;;;;;21.52;28.11;99750.53;1720017;81;21104;-63
2022/02/21 08:35:57;;;;;;;10.87;6.80;;;;;;;21.41;28.33;99752.39;1721287;81;20998;-63
2022/02/21 08:38:24;;;;;;;10.70;5.90;;;;;;;21.48;28.48;99754.25;1719940;81;21243;-66
2022/02/21 08:40:51;;;;;;;12.13;6.83;;;;;;;21.52;27.61;99751.32;1720866;83;20988;-63
2022/02/21 08:43:18;;;;;;;9.50;5.57;;;;;;;21.18;27.65;99745.75;1715917;81;21167;-63
2022/02/21 08:45:48;;;;;;;10.77;6.43;;;;;;;21.19;27.82;99748.66;1720296;83;21331;-63
2022/02/21 08:48:15;;;;;;;11.07;6.30;;;;;;;21.12;28.26;99755.54;1720763;83;21082;-63
2022/02/21 08:50:42;;;;;;;9.27;5.13;;;;;;;21.30;27.87;99757.41;1719982;83;21162;-64
2022/02/21 08:55:44;;;;;;;8.43;5.20;;;;;;;21.21;27.67;99745.20;1720781;82;21745;-66
2022/02/21 08:58:12;;;;;;;9.37;5.43;;;;;;;21.21;27.87;99744.41;1720915;81;21008;-64
2022/02/21 09:00:41;;;;;;;11.63;7.80;;;;;;;21.30;27.58;99748.13;1719538;83;20982;-65
2022/02/21 09:03:08;;;;;;;17.67;9.77;;;;;;;21.29;27.98;99746.52;1711746;81;21482;-70
2022/02/21 09:05:36;;;;;;;12.17;6.80;;;;;;;21.90;27.17;99749.13;1711184;82;20922;-64
2022/02/21 09:08:04;;;;;;;10.00;5.30;;;;;;;22.13;26.71;99742.94;1706955;82;21041;-65
2022/02/21 09:10:53;;;;;;;8.73;5.57;;;;;;;22.28;26.42;99738.38;1701391;82;22474;-63
2022/02/21 09:13:20;;;;;;;10.73;6.10;;;;;;;22.24;26.17;99731.23;1728638;81;21188;-64
2022/02/21 09:15:49;;;;;;;9.57;6.17;;;;;;;22.28;26.54;99733.61;1727511;81;20876;-63
2022/02/21 09:18:18;;;;;;;12.37;5.40;;;;;;;22.12;26.95;99724.86;1732622;81;20921;-63
2022/02/21 09:20:46;;;;;;;8.60;5.20;;;;;;;22.05;26.68;99719.08;1729431;81;21677;-68
2022/02/21 09:23:13;;;;;;;10.40;5.70;;;;;;;21.89;27.19;99719.64;1721905;81;20937;-69
2022/02/21 09:25:41;;;;;;;8.87;5.27;;;;;;;22.03;27.18;99721.98;1724817;82;21113;-63
2022/02/21 09:28:09;;;;;;;8.17;4.80;;;;;;;22.19;27.02;99716.64;1723574;81;21453;-68
2022/02/21 09:30:37;;;;;;;8.63;5.77;;;;;;;22.01;26.75;99714.02;1721906;82;20935;-72
2022/02/21 09:33:04;;;;;;;9.50;5.53;;;;;;;22.01;26.96;99710.86;1724302;81;20954;-70
2022/02/21 09:35:31;;;;;;;9.20;4.90;;;;;;;21.98;27.37;99710.08;1716314;82;21109;-65
2022/02/21 09:38:00;;;;;;;9.93;5.80;;;;;;;22.41;27.03;99712.28;1724551;81;21124;-62
2022/02/21 09:40:29;;;;;;;8.07;4.47;;;;;;;22.28;26.56;99705.73;1718085;81;21150;-64
2022/02/21 09:42:59;;;;;;;7.87;4.63;;;;;;;22.20;26.76;99703.63;1725104;81;21580;-64
2022/02/21 09:45:29;;;;;;;11.23;5.30;;;;;;;22.24;26.89;99705.48;1725245;81;21528;-64
2022/02/21 09:47:56;;;;;;;7.57;5.07;;;;;;;22.05;27.13;99700.50;1721427;81;21069;-63
2022/02/21 09:50:25;;;;;;;11.50;5.70;;;;;;;21.93;27.51;99703.44;1725761;81;21052;-64
2022/02/21 09:52:54;;;;;;;10.00;5.20;;;;;;;21.94;27.92;99702.40;1730485;82;21126;-65
2022/02/21 09:55:22;;;;;;;9.87;5.27;;;;;;;22.02;27.54;99691.75;1719599;81;21017;-65
2022/02/21 09:57:50;;;;;;;10.70;5.80;;;;;;;21.74;27.97;99693.95;1727429;81;21195;-64
2022/02/21 10:00:18;;;;;;;10.30;5.23;;;;;;;21.60;28.37;99690.31;1722712;81;21483;-64
2022/02/21 10:02:47;;;;;;;9.30;5.47;;;;;;;21.75;28.27;99696.11;1726235;81;21020;-66
2022/02/21 10:05:26;;;;;;;14.13;6.53;;;;;;;21.90;28.45;99702.68;1727354;81;21163;-70
2022/02/21 10:07:54;;;;;;;15.40;7.07;;;;;;;21.28;29.08;99692.70;1722728;82;21006;-65
2022/02/21 10:10:23;;;;;;;11.83;6.60;;;;;;;21.21;28.68;99700.13;1724954;81;21461;-65
2022/02/21 10:12:58;;;;;;;10.17;5.40;;;;;;;20.77;29.63;99694.59;1730665;81;21607;-68
2022/02/21 10:15:30;;;;;;;10.17;5.33;;;;;;;21.10;29.30;99686.13;1733154;81;21144;-65
2022/02/21 10:18:17;;;;;;;9.50;5.03;;;;;;;21.16;29.26;99694.05;1729306;81;21073;-65
2022/02/21 10:20:55;;;;;;;9.60;5.23;;;;;;;21.02;29.43;99697.23;1721977;81;20976;-65
2022/02/21 10:23:24;;;;;;;8.90;4.20;;;;;;;21.25;29.06;99683.98;1725252;81;20947;-67
2022/02/21 10:25:58;;;;;;;9.23;4.40;;;;;;;21.13;28.77;99688.22;1703432;82;37708;-65
2022/02/21 10:28:28;;;;;;;11.27;5.70;;;;;;;20.93;29.45;99684.80;1720215;81;20955;-68
2022/02/21 10:31:20;;;;;;;9.00;5.27;;;;;;;21.04;29.49;99686.38;1727843;81;20908;-67
2022/02/21 10:34:03;;;;;;;8.67;4.27;;;;;;;21.01;29.36;99690.88;1727198;81;21033;-69
2022/02/21 10:36:38;;;;;;;10.80;5.03;;;;;;;21.18;29.20;99687.97;1728539;81;21056;-66
2022/02/21 10:39:15;;;;;;;9.30;4.80;;;;;;;20.96;29.16;99682.41;1723628;81;21140;-67
2022/02/21 10:41:52;;;;;;;8.70;4.27;;;;;;;20.77;29.38;99685.33;1724281;81;21858;-68
2022/02/21 10:44:25;;;;;;;10.67;5.57;;;;;;;20.59;29.62;99694.03;1720764;82;21776;-68
2022/02/21 10:47:19;;;;;;;7.70;4.83;;;;;;;20.34;30.46;99692.62;1726282;81;20982;-69
2022/02/21 10:49:54;;;;;;;8.87;4.73;;;;;;;20.50;30.65;99689.00;1724088;81;21083;-68
2022/02/21 10:52:28;;;;;;;8.23;4.27;;;;;;;20.44;30.69;99697.95;1695925;82;21047;-69
2022/02/21 10:54:55;;;;;;;7.97;4.50;;;;;;;20.51;30.47;99695.09;1699399;82;21003;-68
2022/02/21 10:57:25;;;;;;;8.53;4.37;;;;;;;20.60;30.48;99702.23;1693884;82;21158;-70
2022/02/21 10:59:52;;;;;;;8.07;4.53;;;;;;;20.48;30.47;99699.55;1673486;83;21102;-70
2022/02/21 11:02:22;;;;;;;8.83;4.83;;;;;;;20.54;30.79;99704.63;1680728;83;21078;-70
2022/02/21 11:04:50;;;;;;;8.90;4.40;;;;;;;20.63;31.27;99696.42;1675999;83;21494;-70
2022/02/21 11:07:17;;;;;;;8.80;5.13;;;;;;;20.91;30.74;99687.72;1675654;83;21150;-70
2022/02/21 11:09:44;;;;;;;6.53;3.90;;;;;;;20.94;30.80;99684.52;1675812;83;21301;-69
2022/02/21 11:12:13;;;;;;;7.27;3.97;;;;;;;21.04;30.04;99687.17;1677480;83;21029;-70
2022/02/21 11:14:41;;;;;;;8.70;4.87;;;;;;;21.12;29.76;99693.26;1686588;83;21546;-67
2022/02/21 11:17:10;;;;;;;7.27;3.80;;;;;;;21.31;30.04;99688.73;1700169;83;21004;-70
2022/02/21 11:19:37;;;;;;;8.53;4.17;;;;;;;21.39;29.19;99694.84;1693052;83;21839;-68
2022/02/21 11:22:04;;;;;;;9.27;4.20;;;;;;;21.18;29.18;99690.63;1701217;83;21153;-68
2022/02/21 11:24:34;;;;;;;10.80;4.80;;;;;;;20.97;29.17;99697.23;1688042;82;21527;-69
2022/02/21 11:27:26;;;;;;;8.43;5.00;;;;;;;20.59;29.36;99702.51;1738165;81;21479;-68
2022/02/21 11:30:01;;;;;;;11.50;6.13;;;;;;;20.27;30.07;99703.47;1698919;83;22251;-66
2022/02/21 11:32:28;;;;;;;8.53;4.93;;;;;;;20.06;30.64;99703.92;1672671;84;21066;-67